createdAt,value
2023-03-23T15:58:17.338Z,7.53
2023-03-23T16:00:48.419Z,8.45
2023-03-23T16:03:25.597Z,8.23
2023-03-23T16:05:55.250Z,7.18
2023-03-23T16:08:24.487Z,8.18
2023-03-23T16:10:53.924Z,7.88
2023-03-23T16:13:23.452Z,6.55
2023-03-23T16:15:52.937Z,6.40
2023-03-23T16:18:24.813Z,6.68
2023-03-23T16:20:54.314Z,6.93
2023-03-23T16:23:23.937Z,8.20
2023-03-23T16:25:53.278Z,9.93
2023-03-23T16:28:22.830Z,9.63
2023-03-23T16:30:52.457Z,10.82
2023-03-23T16:33:23.700Z,9.90
2023-03-23T16:35:53.092Z,9.80
2023-03-23T16:38:22.560Z,9.60
2023-03-23T16:40:52.192Z,8.77
2023-03-23T16:43:22.676Z,8.85
2023-03-23T16:45:51.975Z,8.93
2023-03-23T16:48:23.510Z,7.65
2023-03-23T16:50:56.144Z,8.40
2023-03-23T16:53:26.560Z,8.25
2023-03-23T16:55:58.023Z,8.15
2023-03-23T16:58:27.687Z,9.10
2023-03-23T17:00:57.256Z,7.68
2023-03-23T17:03:26.666Z,8.75
2023-03-23T17:05:58.041Z,6.82
2023-03-23T17:08:27.325Z,6.82
2023-03-23T17:10:56.600Z,5.93
2023-03-23T17:13:28.296Z,5.38
2023-03-23T17:15:58.481Z,5.53
2023-03-23T17:18:29.559Z,5.00
2023-03-23T17:21:00.404Z,4.80
2023-03-23T17:23:29.789Z,3.75
2023-03-23T17:25:59.040Z,4.90
2023-03-23T17:28:28.340Z,4.20
2023-03-23T17:30:57.669Z,4.18
2023-03-23T17:33:26.898Z,5.03
2023-03-23T17:35:56.363Z,6.20
2023-03-23T17:38:27.549Z,5.40
2023-03-23T17:41:00.265Z,4.13
2023-03-23T17:43:29.592Z,3.90
2023-03-23T17:45:59.056Z,3.22
2023-03-23T17:48:28.561Z,3.15
2023-03-23T17:50:59.598Z,3.70
2023-03-23T17:53:31.978Z,2.53
2023-03-23T17:56:01.599Z,1.98
2023-03-23T17:58:30.915Z,2.05
2023-03-23T18:01:00.566Z,3.85
2023-03-23T18:03:30.080Z,3.08
2023-03-23T18:06:02.017Z,3.80
2023-03-23T18:08:33.239Z,4.03
2023-03-23T18:11:03.141Z,3.60
2023-03-23T18:13:34.605Z,3.58
2023-03-23T18:16:05.651Z,3.92
2023-03-23T18:18:35.824Z,2.83
2023-03-23T18:21:08.229Z,2.60
2023-03-23T18:23:49.310Z,2.88
2023-03-23T18:26:22.620Z,2.87
2023-03-23T18:28:53.261Z,2.55
2023-03-23T18:31:22.717Z,3.33
2023-03-23T18:33:54.889Z,3.80
2023-03-23T18:36:25.944Z,4.53
2023-03-23T18:38:59.266Z,4.35
2023-03-23T18:41:28.740Z,6.18
2023-03-23T18:43:58.081Z,5.10
2023-03-23T18:46:27.743Z,5.35
2023-03-23T18:48:57.230Z,6.32
2023-03-23T18:51:26.802Z,6.50
2023-03-23T18:53:57.589Z,8.00
2023-03-23T18:56:27.393Z,11.35
2023-03-23T18:58:56.717Z,7.43
2023-03-23T19:01:26.046Z,8.50
2023-03-23T19:03:55.588Z,7.85
2023-03-23T19:06:27.846Z,8.02
2023-03-23T19:08:59.280Z,8.90
2023-03-23T19:11:29.010Z,7.43
2023-03-23T19:14:02.876Z,5.72
2023-03-23T19:16:34.784Z,8.82
2023-03-23T19:19:04.565Z,8.75
2023-03-23T19:21:34.293Z,8.70
2023-03-23T19:24:06.985Z,7.30
2023-03-23T19:26:38.540Z,6.55
2023-03-23T19:31:40.866Z,6.15
2023-03-23T19:34:10.689Z,5.80
2023-03-23T19:36:40.190Z,6.88
2023-03-23T19:39:10.980Z,6.20
2023-03-23T19:41:41.764Z,5.90
2023-03-23T19:44:11.121Z,5.50
2023-03-23T19:46:40.358Z,5.13
2023-03-23T19:49:10.228Z,5.20
2023-03-23T19:51:39.799Z,5.38
2023-03-23T19:54:10.590Z,5.40
2023-03-23T19:56:39.846Z,5.25
2023-03-23T19:59:10.938Z,6.15
2023-03-23T20:01:41.336Z,6.85
2023-03-23T20:04:12.435Z,6.35
2023-03-23T20:06:41.884Z,5.97
2023-03-23T20:09:13.658Z,6.97
2023-03-23T20:11:43.369Z,9.75
2023-03-23T20:14:12.498Z,7.03
2023-03-23T20:16:42.677Z,6.65
2023-03-23T20:19:11.899Z,6.18
2023-03-23T20:21:41.146Z,5.80
2023-03-23T20:24:10.353Z,5.18
2023-03-23T20:26:43.468Z,5.38
2023-03-23T20:29:12.910Z,5.13
2023-03-23T20:31:43.648Z,5.53
2023-03-23T20:34:14.380Z,6.03
2023-03-23T20:36:45.687Z,5.45
2023-03-23T20:39:16.778Z,5.57
2023-03-23T20:41:48.755Z,6.25
2023-03-23T20:44:18.491Z,5.55
2023-03-23T20:46:49.334Z,4.90
2023-03-23T20:49:19.412Z,4.63
2023-03-23T20:51:49.204Z,5.13
2023-03-23T20:54:20.127Z,5.70
2023-03-23T20:56:51.237Z,4.00
2023-03-23T20:59:21.368Z,4.47
2023-03-23T21:01:51.796Z,4.15
2023-03-23T21:04:23.466Z,4.90
2023-03-23T21:06:52.846Z,5.53
2023-03-23T21:09:22.563Z,4.63
2023-03-23T21:11:53.299Z,5.15
2023-03-23T21:14:23.954Z,4.90
2023-03-23T21:16:53.141Z,4.97
2023-03-23T21:19:22.590Z,4.30
2023-03-23T21:21:56.253Z,4.22
2023-03-23T21:24:28.584Z,4.63
2023-03-23T21:27:01.237Z,4.65
2023-03-23T21:29:31.586Z,4.32
2023-03-23T21:32:08.172Z,4.55
2023-03-23T21:34:38.543Z,5.25
2023-03-23T21:37:08.006Z,4.05
2023-03-23T21:39:37.305Z,4.57
2023-03-23T21:42:08.461Z,4.55
2023-03-23T21:44:39.572Z,4.60
2023-03-23T21:47:08.798Z,4.70
2023-03-23T21:49:40.467Z,5.18
2023-03-23T21:52:10.619Z,4.63
2023-03-23T21:54:41.632Z,4.38
2023-03-23T21:57:12.264Z,4.75
2023-03-23T21:59:41.476Z,4.93
2023-03-23T22:02:14.039Z,4.75
2023-03-23T22:04:43.424Z,5.00
2023-03-23T22:07:13.507Z,4.97
2023-03-23T22:09:45.424Z,5.00
2023-03-23T22:12:17.073Z,5.55
2023-03-23T22:14:46.804Z,5.63
2023-03-23T22:17:16.035Z,6.30
2023-03-23T22:19:45.271Z,5.82
2023-03-23T22:22:14.496Z,5.85
2023-03-23T22:24:43.722Z,6.90
2023-03-23T22:27:13.027Z,7.18
2023-03-23T22:29:43.815Z,7.38
2023-03-23T22:32:13.359Z,7.95
2023-03-23T22:34:43.215Z,8.00
2023-03-23T22:37:12.721Z,8.68
2023-03-23T22:39:42.020Z,8.80
2023-03-23T22:42:12.434Z,8.10
2023-03-23T22:44:44.215Z,7.60
2023-03-23T22:47:13.475Z,6.50
2023-03-23T22:49:42.777Z,6.38
2023-03-23T22:52:12.130Z,6.22
2023-03-23T22:54:41.521Z,7.07
2023-03-23T22:57:10.778Z,7.13
2023-03-23T22:59:40.033Z,7.95
2023-03-23T23:02:10.880Z,7.90
2023-03-23T23:04:40.068Z,9.35
2023-03-23T23:07:14.576Z,8.20
2023-03-23T23:09:43.935Z,8.70
2023-03-23T23:12:15.031Z,9.13
2023-03-23T23:14:45.238Z,8.10
2023-03-23T23:17:16.001Z,8.07
2023-03-23T23:19:45.427Z,9.13
2023-03-23T23:22:19.391Z,10.07
2023-03-23T23:24:49.070Z,11.30
2023-03-23T23:27:18.655Z,11.27
2023-03-23T23:29:48.104Z,13.02
2023-03-23T23:32:18.940Z,12.00
2023-03-23T23:34:49.002Z,10.90
2023-03-23T23:37:18.329Z,9.65
2023-03-23T23:39:47.566Z,9.27
2023-03-23T23:42:16.831Z,10.65
2023-03-23T23:44:46.882Z,10.30
2023-03-23T23:47:16.513Z,8.48
2023-03-23T23:49:47.365Z,10.98
2023-03-23T23:52:16.895Z,8.80
2023-03-23T23:54:49.040Z,8.68
2023-03-23T23:57:18.422Z,8.02
2023-03-23T23:59:47.726Z,8.38
